sensor_id;sensor_type;location;lat;lon;timestamp;pressure;altitude;pressure_sealevel;temperature;humidity
28181;BME280;15464;50.988;10.318;2023-03-11T00:00:40;97263.56;;;-0.17;100.00
28181;BME280;15464;50.988;10.318;2023-03-11T00:03:11;97272.13;;;-0.15;100.00
28181;BME280;15464;50.988;10.318;2023-03-11T00:05:41;97272.84;;;-0.13;100.00
28181;BME280;15464;50.988;10.318;2023-03-11T00:08:10;97291.59;;;-0.08;97.66
28181;BME280;15464;50.988;10.318;2023-03-11T00:10:39;97291.38;;;-0.05;97.00
28181;BME280;15464;50.988;10.318;2023-03-11T00:13:07;97302.44;;;-0.01;95.87
28181;BME280;15464;50.988;10.318;2023-03-11T00:15:36;97315.56;;;-0.03;96.42
28181;BME280;15464;50.988;10.318;2023-03-11T00:18:03;97314.41;;;0.02;95.24
28181;BME280;15464;50.988;10.318;2023-03-11T00:20:35;97319.50;;;0.03;94.45
28181;BME280;15464;50.988;10.318;2023-03-11T00:23:04;97328.38;;;0.00;94.62
28181;BME280;15464;50.988;10.318;2023-03-11T00:25:32;97337.84;;;0.02;93.26
28181;BME280;15464;50.988;10.318;2023-03-11T00:27:59;97345.47;;;0.05;92.35
28181;BME280;15464;50.988;10.318;2023-03-11T00:30:27;97340.28;;;0.05;92.90
28181;BME280;15464;50.988;10.318;2023-03-11T00:32:56;97352.13;;;0.09;92.44
28181;BME280;15464;50.988;10.318;2023-03-11T00:35:24;97359.22;;;0.07;91.83
28181;BME280;15464;50.988;10.318;2023-03-11T00:37:53;97365.19;;;0.09;90.98
28181;BME280;15464;50.988;10.318;2023-03-11T00:40:22;97391.03;;;0.12;90.48
28181;BME280;15464;50.988;10.318;2023-03-11T00:42:49;97405.00;;;0.11;89.81
28181;BME280;15464;50.988;10.318;2023-03-11T00:45:16;97399.78;;;0.11;90.66
28181;BME280;15464;50.988;10.318;2023-03-11T00:47:44;97417.81;;;0.14;89.59
28181;BME280;15464;50.988;10.318;2023-03-11T00:50:17;97421.50;;;0.11;87.52
28181;BME280;15464;50.988;10.318;2023-03-11T00:52:45;97434.41;;;0.13;87.09
28181;BME280;15464;50.988;10.318;2023-03-11T00:55:15;97435.44;;;0.10;85.92
28181;BME280;15464;50.988;10.318;2023-03-11T00:57:42;97452.75;;;0.11;86.74
28181;BME280;15464;50.988;10.318;2023-03-11T01:00:20;97442.75;;;0.05;85.28
28181;BME280;15464;50.988;10.318;2023-03-11T01:02:47;97449.00;;;0.03;85.76
28181;BME280;15464;50.988;10.318;2023-03-11T01:05:14;97454.00;;;0.06;87.37
28181;BME280;15464;50.988;10.318;2023-03-11T01:07:41;97450.84;;;0.00;86.98
28181;BME280;15464;50.988;10.318;2023-03-11T01:10:08;97453.38;;;0.02;86.43
28181;BME280;15464;50.988;10.318;2023-03-11T01:12:35;97474.13;;;0.04;86.87
28181;BME280;15464;50.988;10.318;2023-03-11T01:15:02;97470.69;;;0.03;85.73
28181;BME280;15464;50.988;10.318;2023-03-11T01:17:29;97467.22;;;0.03;85.09
28181;BME280;15464;50.988;10.318;2023-03-11T01:19:56;97480.28;;;0.03;85.15
28181;BME280;15464;50.988;10.318;2023-03-11T01:22:23;97478.81;;;-0.02;85.00
28181;BME280;15464;50.988;10.318;2023-03-11T01:24:49;97485.88;;;-0.04;85.49
28181;BME280;15464;50.988;10.318;2023-03-11T01:27:16;97479.84;;;-0.04;85.58
28181;BME280;15464;50.988;10.318;2023-03-11T01:29:43;97482.53;;;-0.06;85.64
28181;BME280;15464;50.988;10.318;2023-03-11T01:32:10;97499.84;;;-0.05;84.69
28181;BME280;15464;50.988;10.318;2023-03-11T01:34:36;97496.13;;;-0.01;84.96
28181;BME280;15464;50.988;10.318;2023-03-11T01:37:03;97501.75;;;-0.07;84.02
28181;BME280;15464;50.988;10.318;2023-03-11T01:39:30;97499.22;;;-0.08;84.29
28181;BME280;15464;50.988;10.318;2023-03-11T01:41:56;97501.53;;;-0.04;84.32
28181;BME280;15464;50.988;10.318;2023-03-11T01:44:23;97512.97;;;-0.06;83.91
28181;BME280;15464;50.988;10.318;2023-03-11T01:49:21;97531.53;;;-0.11;84.46
28181;BME280;15464;50.988;10.318;2023-03-11T01:51:50;97535.06;;;-0.12;84.86
28181;BME280;15464;50.988;10.318;2023-03-11T01:54:30;97541.22;;;-0.13;85.62
28181;BME280;15464;50.988;10.318;2023-03-11T01:57:01;97555.19;;;-0.14;84.39
28181;BME280;15464;50.988;10.318;2023-03-11T01:59:35;97549.13;;;-0.14;86.22
28181;BME280;15464;50.988;10.318;2023-03-11T02:04:36;97571.00;;;-0.17;85.30
28181;BME280;15464;50.988;10.318;2023-03-11T02:07:03;97569.16;;;-0.15;84.78
28181;BME280;15464;50.988;10.318;2023-03-11T02:09:32;97578.63;;;-0.14;86.23
28181;BME280;15464;50.988;10.318;2023-03-11T02:11:59;97572.78;;;-0.17;85.85
28181;BME280;15464;50.988;10.318;2023-03-11T02:14:28;97581.72;;;-0.21;86.32
28181;BME280;15464;50.988;10.318;2023-03-11T02:16:56;97590.91;;;-0.16;86.74
28181;BME280;15464;50.988;10.318;2023-03-11T02:22:21;97588.41;;;-0.17;83.57
28181;BME280;15464;50.988;10.318;2023-03-11T02:25:55;97609.25;;;-0.17;84.71
28181;BME280;15464;50.988;10.318;2023-03-11T02:27:54;97603.19;;;-0.18;82.53
28181;BME280;15464;50.988;10.318;2023-03-11T02:30:22;97615.28;;;-0.17;82.98
28181;BME280;15464;50.988;10.318;2023-03-11T02:32:50;97627.41;;;-0.16;82.55
28181;BME280;15464;50.988;10.318;2023-03-11T02:35:18;97620.31;;;-0.14;82.87
28181;BME280;15464;50.988;10.318;2023-03-11T02:37:47;97617.38;;;-0.22;81.88
28181;BME280;15464;50.988;10.318;2023-03-11T02:43:17;97633.38;;;-0.28;81.50
28181;BME280;15464;50.988;10.318;2023-03-11T02:45:45;97641.94;;;-0.26;80.68
28181;BME280;15464;50.988;10.318;2023-03-11T02:48:15;97651.63;;;-0.28;81.23
28181;BME280;15464;50.988;10.318;2023-03-11T02:50:43;97655.34;;;-0.32;81.01
28181;BME280;15464;50.988;10.318;2023-03-11T02:53:11;97651.06;;;-0.33;78.65
28181;BME280;15464;50.988;10.318;2023-03-11T02:55:38;97662.13;;;-0.29;78.79
28181;BME280;15464;50.988;10.318;2023-03-11T02:58:04;97659.81;;;-0.34;79.56
28181;BME280;15464;50.988;10.318;2023-03-11T03:00:31;97668.38;;;-0.32;78.47
28181;BME280;15464;50.988;10.318;2023-03-11T03:02:59;97663.06;;;-0.30;77.42
28181;BME280;15464;50.988;10.318;2023-03-11T03:05:26;97666.69;;;-0.33;78.57
28181;BME280;15464;50.988;10.318;2023-03-11T03:07:53;97666.78;;;-0.34;78.30
28181;BME280;15464;50.988;10.318;2023-03-11T03:10:20;97678.06;;;-0.34;78.92
28181;BME280;15464;50.988;10.318;2023-03-11T03:12:47;97678.13;;;-0.35;77.81
28181;BME280;15464;50.988;10.318;2023-03-11T03:15:15;97693.84;;;-0.37;78.18
28181;BME280;15464;50.988;10.318;2023-03-11T03:17:42;97687.72;;;-0.36;78.62
28181;BME280;15464;50.988;10.318;2023-03-11T03:20:09;97685.41;;;-0.41;78.47
28181;BME280;15464;50.988;10.318;2023-03-11T03:22:37;97694.16;;;-0.42;78.14
28181;BME280;15464;50.988;10.318;2023-03-11T03:25:05;97696.00;;;-0.44;77.52
28181;BME280;15464;50.988;10.318;2023-03-11T03:27:32;97695.34;;;-0.47;77.53
28181;BME280;15464;50.988;10.318;2023-03-11T03:29:59;97710.06;;;-0.46;77.58
28181;BME280;15464;50.988;10.318;2023-03-11T03:32:26;97697.88;;;-0.46;78.36
28181;BME280;15464;50.988;10.318;2023-03-11T03:34:53;97697.03;;;-0.46;79.38
28181;BME280;15464;50.988;10.318;2023-03-11T03:37:27;97706.63;;;-0.47;78.79
28181;BME280;15464;50.988;10.318;2023-03-11T03:39:57;97714.13;;;-0.42;77.93
28181;BME280;15464;50.988;10.318;2023-03-11T03:42:24;97712.28;;;-0.40;78.29
28181;BME280;15464;50.988;10.318;2023-03-11T03:44:50;97721.03;;;-0.41;79.65
28181;BME280;15464;50.988;10.318;2023-03-11T03:47:18;97708.94;;;-0.42;79.60
28181;BME280;15464;50.988;10.318;2023-03-11T03:49:45;97723.91;;;-0.46;79.78
28181;BME280;15464;50.988;10.318;2023-03-11T03:52:12;97723.16;;;-0.48;80.10
28181;BME280;15464;50.988;10.318;2023-03-11T03:54:38;97740.38;;;-0.45;79.64
28181;BME280;15464;50.988;10.318;2023-03-11T03:57:05;97734.72;;;-0.52;81.57
28181;BME280;15464;50.988;10.318;2023-03-11T03:59:32;97748.75;;;-0.54;81.90
28181;BME280;15464;50.988;10.318;2023-03-11T04:01:58;97753.66;;;-0.50;81.65
28181;BME280;15464;50.988;10.318;2023-03-11T04:04:25;97746.06;;;-0.53;81.59
28181;BME280;15464;50.988;10.318;2023-03-11T04:06:52;97749.28;;;-0.49;82.17
28181;BME280;15464;50.988;10.318;2023-03-11T04:09:19;97752.84;;;-0.50;81.92
28181;BME280;15464;50.988;10.318;2023-03-11T04:11:46;97752.09;;;-0.52;82.54
28181;BME280;15464;50.988;10.318;2023-03-11T04:14:13;97754.69;;;-0.52;82.26
28181;BME280;15464;50.988;10.318;2023-03-11T04:16:40;97766.88;;;-0.53;82.77
28181;BME280;15464;50.988;10.318;2023-03-11T04:19:07;97760.56;;;-0.49;82.09
28181;BME280;15464;50.988;10.318;2023-03-11T04:21:34;97766.81;;;-0.51;81.25
28181;BME280;15464;50.988;10.318;2023-03-11T04:24:01;97774.50;;;-0.50;82.66
28181;BME280;15464;50.988;10.318;2023-03-11T04:26:28;97775.44;;;-0.51;82.38
28181;BME280;15464;50.988;10.318;2023-03-11T04:28:54;97789.41;;;-0.52;82.18
28181;BME280;15464;50.988;10.318;2023-03-11T04:31:21;97783.25;;;-0.51;82.03
28181;BME280;15464;50.988;10.318;2023-03-11T04:33:48;97790.25;;;-0.51;82.49
28181;BME280;15464;50.988;10.318;2023-03-11T04:36:15;97790.25;;;-0.51;82.57
28181;BME280;15464;50.988;10.318;2023-03-11T04:38:42;97789.56;;;-0.55;82.92
28181;BME280;15464;50.988;10.318;2023-03-11T04:41:08;97794.69;;;-0.53;83.15
28181;BME280;15464;50.988;10.318;2023-03-11T04:43:35;97791.16;;;-0.52;84.02
28181;BME280;15464;50.988;10.318;2023-03-11T04:46:02;97792.84;;;-0.51;83.84
28181;BME280;15464;50.988;10.318;2023-03-11T04:48:29;97795.44;;;-0.51;83.55
28181;BME280;15464;50.988;10.318;2023-03-11T04:50:56;97801.38;;;-0.49;84.29
28181;BME280;15464;50.988;10.318;2023-03-11T04:53:23;97797.47;;;-0.56;84.73
28181;BME280;15464;50.988;10.318;2023-03-11T04:55:50;97801.25;;;-0.62;84.24
28181;BME280;15464;50.988;10.318;2023-03-11T04:58:17;97808.34;;;-0.64;84.52
28181;BME280;15464;50.988;10.318;2023-03-11T05:00:44;97811.19;;;-0.68;85.29
28181;BME280;15464;50.988;10.318;2023-03-11T05:03:11;97814.06;;;-0.73;87.01
28181;BME280;15464;50.988;10.318;2023-03-11T05:05:38;97815.28;;;-0.78;88.18
28181;BME280;15464;50.988;10.318;2023-03-11T05:08:04;97824.84;;;-0.79;89.25
28181;BME280;15464;50.988;10.318;2023-03-11T05:10:32;97835.81;;;-0.88;90.51
28181;BME280;15464;50.988;10.318;2023-03-11T05:12:58;97842.72;;;-1.03;92.14
28181;BME280;15464;50.988;10.318;2023-03-11T05:15:25;97850.09;;;-0.95;93.08
28181;BME280;15464;50.988;10.318;2023-03-11T05:17:52;97857.22;;;-0.99;94.57
28181;BME280;15464;50.988;10.318;2023-03-11T05:20:18;97858.13;;;-1.00;94.86
28181;BME280;15464;50.988;10.318;2023-03-11T05:22:45;97859.81;;;-0.99;96.51
28181;BME280;15464;50.988;10.318;2023-03-11T05:25:12;97865.78;;;-0.97;96.69
28181;BME280;15464;50.988;10.318;2023-03-11T05:27:38;97870.78;;;-0.94;96.91
28181;BME280;15464;50.988;10.318;2023-03-11T05:30:06;97868.38;;;-0.97;98.53
28181;BME280;15464;50.988;10.318;2023-03-11T05:32:33;97879.28;;;-1.06;99.23
28181;BME280;15464;50.988;10.318;2023-03-11T05:35:00;97884.59;;;-1.07;100.00
28181;BME280;15464;50.988;10.318;2023-03-11T05:37:29;97879.47;;;-1.09;99.81
28181;BME280;15464;50.988;10.318;2023-03-11T05:39:56;97883.91;;;-1.11;100.00
28181;BME280;15464;50.988;10.318;2023-03-11T05:42:23;97878.06;;;-1.14;100.00
28181;BME280;15464;50.988;10.318;2023-03-11T05:44:49;97878.31;;;-1.19;100.00
28181;BME280;15464;50.988;10.318;2023-03-11T05:47:16;97887.63;;;-1.15;100.00
28181;BME280;15464;50.988;10.318;2023-03-11T05:49:46;97889.19;;;-1.12;100.00
28181;BME280;15464;50.988;10.318;2023-03-11T05:52:12;97896.19;;;-1.13;100.00
28181;BME280;15464;50.988;10.318;2023-03-11T05:54:39;97894.31;;;-1.11;100.00
28181;BME280;15464;50.988;10.318;2023-03-11T05:57:06;97897.94;;;-1.29;100.00
28181;BME280;15464;50.988;10.318;2023-03-11T05:59:33;97911.84;;;-1.30;100.00
28181;BME280;15464;50.988;10.318;2023-03-11T06:02:00;97911.53;;;-1.24;100.00
28181;BME280;15464;50.988;10.318;2023-03-11T06:04:27;97912.38;;;-1.24;100.00
28181;BME280;15464;50.988;10.318;2023-03-11T06:06:54;97909.44;;;-1.17;100.00
28181;BME280;15464;50.988;10.318;2023-03-11T06:09:21;97911.19;;;-1.18;100.00
28181;BME280;15464;50.988;10.318;2023-03-11T06:11:48;97907.66;;;-1.17;100.00
28181;BME280;15464;50.988;10.318;2023-03-11T06:14:14;97907.50;;;-1.14;100.00
28181;BME280;15464;50.988;10.318;2023-03-11T06:16:41;97915.13;;;-1.11;100.00
28181;BME280;15464;50.988;10.318;2023-03-11T06:19:08;97916.91;;;-1.11;100.00
28181;BME280;15464;50.988;10.318;2023-03-11T06:21:35;97925.63;;;-1.12;100.00
28181;BME280;15464;50.988;10.318;2023-03-11T06:24:02;97925.97;;;-1.03;100.00
28181;BME280;15464;50.988;10.318;2023-03-11T06:26:28;97928.22;;;-0.97;100.00
28181;BME280;15464;50.988;10.318;2023-03-11T06:28:55;97927.13;;;-0.93;100.00
28181;BME280;15464;50.988;10.318;2023-03-11T06:31:24;97933.09;;;-0.91;100.00
28181;BME280;15464;50.988;10.318;2023-03-11T06:33:53;97937.88;;;-0.99;100.00
28181;BME280;15464;50.988;10.318;2023-03-11T06:36:25;97947.63;;;-0.87;100.00
28181;BME280;15464;50.988;10.318;2023-03-11T06:38:52;97950.22;;;-0.87;100.00
28181;BME280;15464;50.988;10.318;2023-03-11T06:41:19;97950.81;;;-0.82;100.00
28181;BME280;15464;50.988;10.318;2023-03-11T06:43:46;97952.31;;;-0.77;99.28
28181;BME280;15464;50.988;10.318;2023-03-11T06:46:16;97963.03;;;-0.68;98.13
28181;BME280;15464;50.988;10.318;2023-03-11T06:48:44;97957.34;;;-0.59;97.32
28181;BME280;15464;50.988;10.318;2023-03-11T06:51:12;97973.47;;;-0.68;96.89
28181;BME280;15464;50.988;10.318;2023-03-11T06:53:39;97973.47;;;-0.68;97.12
28181;BME280;15464;50.988;10.318;2023-03-11T06:56:08;97971.63;;;-0.66;96.86
28181;BME280;15464;50.988;10.318;2023-03-11T06:58:36;97972.63;;;-0.68;97.20
28181;BME280;15464;50.988;10.318;2023-03-11T07:01:11;97983.03;;;-0.68;96.89
28181;BME280;15464;50.988;10.318;2023-03-11T07:03:39;97988.59;;;-0.74;97.39
28181;BME280;15464;50.988;10.318;2023-03-11T07:06:10;97988.75;;;-0.77;97.27
28181;BME280;15464;50.988;10.318;2023-03-11T07:08:37;97990.69;;;-0.81;97.17
28181;BME280;15464;50.988;10.318;2023-03-11T07:11:08;97992.94;;;-0.75;97.57
28181;BME280;15464;50.988;10.318;2023-03-11T07:13:36;98001.88;;;-0.63;96.19
28181;BME280;15464;50.988;10.318;2023-03-11T07:16:08;98002.72;;;-0.63;95.03
28181;BME280;15464;50.988;10.318;2023-03-11T07:18:36;98006.22;;;-0.64;94.45
28181;BME280;15464;50.988;10.318;2023-03-11T07:21:05;98016.19;;;-0.56;94.09
28181;BME280;15464;50.988;10.318;2023-03-11T07:23:33;98016.47;;;-0.45;93.54
28181;BME280;15464;50.988;10.318;2023-03-11T07:26:00;98016.47;;;-0.45;92.71
28181;BME280;15464;50.988;10.318;2023-03-11T07:28:27;98028.63;;;-0.30;92.36
28181;BME280;15464;50.988;10.318;2023-03-11T07:30:55;98023.38;;;-0.44;91.54
28181;BME280;15464;50.988;10.318;2023-03-11T07:33:22;98029.72;;;-0.34;90.95
28181;BME280;15464;50.988;10.318;2023-03-11T07:35:50;98021.63;;;-0.29;91.23
28181;BME280;15464;50.988;10.318;2023-03-11T07:38:17;98025.69;;;-0.39;89.72
28181;BME280;15464;50.988;10.318;2023-03-11T07:40:45;98027.00;;;-0.17;89.81
28181;BME280;15464;50.988;10.318;2023-03-11T07:43:12;98026.75;;;0.18;88.80
28181;BME280;15464;50.988;10.318;2023-03-11T07:45:39;98020.94;;;0.43;87.33
28181;BME280;15464;50.988;10.318;2023-03-11T07:48:05;98024.50;;;0.56;86.28
28181;BME280;15464;50.988;10.318;2023-03-11T07:50:32;98034.34;;;0.51;83.23
28181;BME280;15464;50.988;10.318;2023-03-11T07:52:59;98038.94;;;0.61;85.39
28181;BME280;15464;50.988;10.318;2023-03-11T07:55:25;98044.72;;;0.66;84.30
28181;BME280;15464;50.988;10.318;2023-03-11T07:57:52;98048.81;;;0.85;81.80
28181;BME280;15464;50.988;10.318;2023-03-11T08:00:19;98052.19;;;0.87;78.57
28181;BME280;15464;50.988;10.318;2023-03-11T08:02:46;98050.13;;;0.92;76.79
28181;BME280;15464;50.988;10.318;2023-03-11T08:05:13;98060.16;;;0.69;77.47
28181;BME280;15464;50.988;10.318;2023-03-11T08:07:40;98073.03;;;0.58;77.21
28181;BME280;15464;50.988;10.318;2023-03-11T08:10:07;98064.22;;;0.45;74.79
28181;BME280;15464;50.988;10.318;2023-03-11T08:12:34;98061.66;;;0.59;75.19
28181;BME280;15464;50.988;10.318;2023-03-11T08:15:01;98071.34;;;0.43;73.22
28181;BME280;15464;50.988;10.318;2023-03-11T08:17:27;98081.28;;;0.51;73.08
28181;BME280;15464;50.988;10.318;2023-03-11T08:19:54;98091.91;;;0.48;73.50
28181;BME280;15464;50.988;10.318;2023-03-11T08:22:21;98096.81;;;0.38;73.30
28181;BME280;15464;50.988;10.318;2023-03-11T08:24:51;98101.69;;;0.44;72.38
28181;BME280;15464;50.988;10.318;2023-03-11T08:27:18;98101.31;;;0.50;72.11
28181;BME280;15464;50.988;10.318;2023-03-11T08:29:45;98097.63;;;0.54;72.68
28181;BME280;15464;50.988;10.318;2023-03-11T08:32:12;98103.00;;;0.51;72.31
28181;BME280;15464;50.988;10.318;2023-03-11T08:34:39;98109.38;;;0.61;71.53
28181;BME280;15464;50.988;10.318;2023-03-11T08:37:06;98107.88;;;0.57;71.08
28181;BME280;15464;50.988;10.318;2023-03-11T08:39:32;98109.91;;;0.52;71.46
28181;BME280;15464;50.988;10.318;2023-03-11T08:41:59;98125.56;;;0.52;72.13
28181;BME280;15464;50.988;10.318;2023-03-11T08:44:26;98121.88;;;0.56;69.40
28181;BME280;15464;50.988;10.318;2023-03-11T08:46:53;98137.69;;;0.53;70.08
28181;BME280;15464;50.988;10.318;2023-03-11T08:49:20;98143.88;;;0.66;69.95
28181;BME280;15464;50.988;10.318;2023-03-11T08:51:46;98141.53;;;0.62;69.18
28181;BME280;15464;50.988;10.318;2023-03-11T08:54:13;98147.41;;;0.65;68.27
28181;BME280;15464;50.988;10.318;2023-03-11T08:56:39;98154.88;;;0.71;69.10
28181;BME280;15464;50.988;10.318;2023-03-11T08:59:06;98161.09;;;0.69;67.72
28181;BME280;15464;50.988;10.318;2023-03-11T09:01:34;98151.06;;;0.77;68.74
28181;BME280;15464;50.988;10.318;2023-03-11T09:04:00;98152.88;;;0.91;68.17
28181;BME280;15464;50.988;10.318;2023-03-11T09:06:27;98154.34;;;0.95;69.01
28181;BME280;15464;50.988;10.318;2023-03-11T09:08:56;98167.81;;;1.03;68.61
28181;BME280;15464;50.988;10.318;2023-03-11T09:11:22;98165.91;;;0.91;65.82
28181;BME280;15464;50.988;10.318;2023-03-11T09:13:50;98164.31;;;0.88;65.90
28181;BME280;15464;50.988;10.318;2023-03-11T09:16:21;98170.38;;;0.89;67.90
28181;BME280;15464;50.988;10.318;2023-03-11T09:18:48;98174.00;;;0.72;66.46
28181;BME280;15464;50.988;10.318;2023-03-11T09:21:15;98179.13;;;0.73;66.76
28181;BME280;15464;50.988;10.318;2023-03-11T09:23:42;98169.69;;;0.71;66.77
28181;BME280;15464;50.988;10.318;2023-03-11T09:26:10;98175.00;;;0.69;67.65
28181;BME280;15464;50.988;10.318;2023-03-11T09:28:37;98184.25;;;0.75;66.43
28181;BME280;15464;50.988;10.318;2023-03-11T09:31:04;98187.88;;;0.72;67.38
28181;BME280;15464;50.988;10.318;2023-03-11T09:33:35;98180.47;;;0.65;66.59
28181;BME280;15464;50.988;10.318;2023-03-11T09:36:02;98198.00;;;0.63;67.25
28181;BME280;15464;50.988;10.318;2023-03-11T09:38:29;98196.97;;;0.65;67.82
28181;BME280;15464;50.988;10.318;2023-03-11T09:41:08;98204.47;;;0.71;68.41
28181;BME280;15464;50.988;10.318;2023-03-11T09:46:29;98206.78;;;0.62;68.36
28181;BME280;15464;50.988;10.318;2023-03-11T09:49:13;98200.44;;;0.66;67.46
28181;BME280;15464;50.988;10.318;2023-03-11T09:51:56;98211.72;;;0.66;68.54
28181;BME280;15464;50.988;10.318;2023-03-11T09:54:28;98217.34;;;0.74;68.60
28181;BME280;15464;50.988;10.318;2023-03-11T09:57:00;98218.44;;;0.70;69.09
28181;BME280;15464;50.988;10.318;2023-03-11T09:59:31;98221.97;;;0.69;67.79
28181;BME280;15464;50.988;10.318;2023-03-11T10:01:59;98220.31;;;0.68;67.98
28181;BME280;15464;50.988;10.318;2023-03-11T10:04:30;98225.53;;;0.68;69.06
28181;BME280;15464;50.988;10.318;2023-03-11T10:07:01;98225.19;;;0.74;69.15
28181;BME280;15464;50.988;10.318;2023-03-11T10:09:37;98221.00;;;0.56;69.56
28181;BME280;15464;50.988;10.318;2023-03-11T10:12:35;98231.53;;;0.55;70.56
28181;BME280;15464;50.988;10.318;2023-03-11T10:29:28;98237.53;;;0.87;68.93
28181;BME280;15464;50.988;10.318;2023-03-11T10:32:14;98237.31;;;0.90;68.65
28181;BME280;15464;50.988;10.318;2023-03-11T10:34:47;98235.03;;;0.99;69.73
28181;BME280;15464;50.988;10.318;2023-03-11T10:37:38;98241.09;;;1.00;70.48
28181;BME280;15464;50.988;10.318;2023-03-11T10:40:31;98247.63;;;1.07;69.15
28181;BME280;15464;50.988;10.318;2023-03-11T10:43:12;98245.56;;;0.98;70.15
28181;BME280;15464;50.988;10.318;2023-03-11T10:45:42;98246.34;;;1.14;69.94
28181;BME280;15464;50.988;10.318;2023-03-11T10:48:15;98248.44;;;1.23;69.36
28181;BME280;15464;50.988;10.318;2023-03-11T10:51:04;98239.94;;;1.34;70.21
28181;BME280;15464;50.988;10.318;2023-03-11T10:53:52;98237.06;;;1.38;70.08
28181;BME280;15464;50.988;10.318;2023-03-11T10:56:36;98238.38;;;1.45;69.39
28181;BME280;15464;50.988;10.318;2023-03-11T10:59:19;98241.91;;;1.44;68.09
28181;BME280;15464;50.988;10.318;2023-03-11T11:01:58;98244.72;;;1.41;67.87
28181;BME280;15464;50.988;10.318;2023-03-11T11:04:39;98245.28;;;1.46;68.16
28181;BME280;15464;50.988;10.318;2023-03-11T11:07:39;98253.31;;;1.43;70.08
28181;BME280;15464;50.988;10.318;2023-03-11T11:12:56;98251.63;;;1.42;68.00
28181;BME280;15464;50.988;10.318;2023-03-11T11:15:35;98246.38;;;1.28;68.90
28181;BME280;15464;50.988;10.318;2023-03-11T11:18:04;98249.75;;;1.30;68.28
28181;BME280;15464;50.988;10.318;2023-03-11T11:20:32;98252.72;;;1.38;68.00
28181;BME280;15464;50.988;10.318;2023-03-11T11:23:02;98250.72;;;1.43;69.48
28181;BME280;15464;50.988;10.318;2023-03-11T11:25:37;98265.44;;;1.30;70.09
28181;BME280;15464;50.988;10.318;2023-03-11T11:28:18;98260.75;;;1.35;68.99
28181;BME280;15464;50.988;10.318;2023-03-11T11:30:59;98265.53;;;1.43;68.80
28181;BME280;15464;50.988;10.318;2023-03-11T11:33:30;98269.63;;;1.33;70.24
28181;BME280;15464;50.988;10.318;2023-03-11T11:36:01;98267.00;;;1.33;70.00
28181;BME280;15464;50.988;10.318;2023-03-11T11:38:29;98269.63;;;1.33;68.82
28181;BME280;15464;50.988;10.318;2023-03-11T11:40:58;98272.41;;;1.44;69.46
28181;BME280;15464;50.988;10.318;2023-03-11T11:43:52;98277.84;;;1.41;68.64
28181;BME280;15464;50.988;10.318;2023-03-11T11:49:28;98277.19;;;1.37;69.50
28181;BME280;15464;50.988;10.318;2023-03-11T11:52:18;98277.38;;;1.34;69.19
28181;BME280;15464;50.988;10.318;2023-03-11T11:57:20;98275.16;;;1.42;70.21
28181;BME280;15464;50.988;10.318;2023-03-11T11:59:48;98283.16;;;1.39;69.16
28181;BME280;15464;50.988;10.318;2023-03-11T12:08:04;98272.75;;;1.53;69.35
28181;BME280;15464;50.988;10.318;2023-03-11T12:11:11;98270.22;;;1.52;68.05
28181;BME280;15464;50.988;10.318;2023-03-11T12:19:17;98265.19;;;1.77;67.09
28181;BME280;15464;50.988;10.318;2023-03-11T12:26:46;98245.28;;;2.17;65.61
28181;BME280;15464;50.988;10.318;2023-03-11T12:29:23;98252.75;;;2.09;64.30
28181;BME280;15464;50.988;10.318;2023-03-11T12:31:52;98252.47;;;2.14;65.40
28181;BME280;15464;50.988;10.318;2023-03-11T12:34:21;98255.19;;;2.12;63.56
28181;BME280;15464;50.988;10.318;2023-03-11T12:36:51;98264.72;;;1.99;65.07
28181;BME280;15464;50.988;10.318;2023-03-11T12:39:25;98269.59;;;2.05;64.77
28181;BME280;15464;50.988;10.318;2023-03-11T12:44:39;98263.75;;;2.28;64.59
28181;BME280;15464;50.988;10.318;2023-03-11T12:49:35;98258.28;;;2.46;65.07
28181;BME280;15464;50.988;10.318;2023-03-11T12:54:45;98266.72;;;2.36;64.81
28181;BME280;15464;50.988;10.318;2023-03-11T13:02:27;98264.81;;;2.53;64.08
28181;BME280;15464;50.988;10.318;2023-03-11T13:05:20;98265.59;;;2.40;62.40
28181;BME280;15464;50.988;10.318;2023-03-11T13:13:21;98261.91;;;3.23;59.34
28181;BME280;15464;50.988;10.318;2023-03-11T13:15:48;98263.53;;;2.99;56.83
28181;BME280;15464;50.988;10.318;2023-03-11T13:18:21;98269.97;;;2.94;57.42
28181;BME280;15464;50.988;10.318;2023-03-11T13:20:52;98268.59;;;2.88;58.07
28181;BME280;15464;50.988;10.318;2023-03-11T13:23:31;98266.38;;;2.82;58.25
28181;BME280;15464;50.988;10.318;2023-03-11T13:26:15;98282.03;;;2.69;57.82
28181;BME280;15464;50.988;10.318;2023-03-11T13:28:53;98288.06;;;2.57;59.76
28181;BME280;15464;50.988;10.318;2023-03-11T13:33:52;98291.13;;;2.64;58.63
28181;BME280;15464;50.988;10.318;2023-03-11T13:41:42;98293.38;;;2.70;59.03
28181;BME280;15464;50.988;10.318;2023-03-11T13:44:34;98296.72;;;2.72;57.87
28181;BME280;15464;50.988;10.318;2023-03-11T13:47:12;98291.28;;;2.75;58.63
28181;BME280;15464;50.988;10.318;2023-03-11T13:52:47;98300.16;;;2.46;60.24
28181;BME280;15464;50.988;10.318;2023-03-11T13:55:42;98305.94;;;2.51;59.99
28181;BME280;15464;50.988;10.318;2023-03-11T13:58:22;98304.47;;;2.47;59.12
28181;BME280;15464;50.988;10.318;2023-03-11T14:00:51;98305.22;;;2.49;61.24
28181;BME280;15464;50.988;10.318;2023-03-11T14:03:19;98312.53;;;2.43;60.81
28181;BME280;15464;50.988;10.318;2023-03-11T14:05:49;98306.59;;;2.54;59.90
28181;BME280;15464;50.988;10.318;2023-03-11T14:11:02;98310.41;;;2.90;58.00
28181;BME280;15464;50.988;10.318;2023-03-11T14:13:31;98310.19;;;2.80;58.36
28181;BME280;15464;50.988;10.318;2023-03-11T14:16:08;98304.00;;;2.81;57.16
28181;BME280;15464;50.988;10.318;2023-03-11T14:18:38;98315.22;;;2.83;57.13
28181;BME280;15464;50.988;10.318;2023-03-11T14:21:17;98318.59;;;2.85;56.49
28181;BME280;15464;50.988;10.318;2023-03-11T14:23:51;98328.22;;;2.84;57.93
28181;BME280;15464;50.988;10.318;2023-03-11T14:26:21;98325.69;;;2.83;59.18
28181;BME280;15464;50.988;10.318;2023-03-11T14:28:55;98326.41;;;2.99;60.24
28181;BME280;15464;50.988;10.318;2023-03-11T14:36:40;98332.50;;;3.12;56.22
28181;BME280;15464;50.988;10.318;2023-03-11T14:39:35;98338.09;;;3.20;56.15